createdAt,value
2023-01-26T00:02:21.570Z,0.15
2023-01-26T00:04:55.198Z,0.19
2023-01-26T00:07:40.835Z,0.40
2023-01-26T00:10:07.595Z,0.55
2023-01-26T00:12:46.836Z,0.64
2023-01-26T00:15:17.085Z,0.71
2023-01-26T00:17:53.218Z,0.78
2023-01-26T00:22:56.457Z,0.47
2023-01-26T00:25:29.439Z,0.53
2023-01-26T00:28:04.775Z,0.62
2023-01-26T00:30:34.672Z,0.49
2023-01-26T00:35:55.493Z,0.26
2023-01-26T00:38:36.571Z,0.16
2023-01-26T00:41:27.469Z,0.24
2023-01-26T00:43:56.446Z,0.20
2023-01-26T00:49:03.358Z,0.20
2023-01-26T00:51:41.277Z,0.15
2023-01-26T00:54:12.256Z,0.08
2023-01-26T00:56:47.362Z,0.06
2023-01-26T00:59:21.700Z,0.01
2023-01-26T01:01:53.541Z,0.10
2023-01-26T01:06:50.790Z,0.08
2023-01-26T01:09:21.920Z,0.22
2023-01-26T01:11:49.322Z,0.21
2023-01-26T01:17:15.110Z,0.15
2023-01-26T01:19:44.865Z,0.11
2023-01-26T01:24:51.580Z,0.08
2023-01-26T01:27:20.277Z,0.31
2023-01-26T01:29:47.848Z,0.56
2023-01-26T01:32:17.048Z,0.76
2023-01-26T01:34:43.929Z,0.48
2023-01-26T01:37:10.952Z,0.40
2023-01-26T01:39:38.014Z,0.30
2023-01-26T01:42:05.022Z,0.08
2023-01-26T01:44:32.106Z,0.04
2023-01-26T01:47:07.335Z,-0.02
2023-01-26T01:49:39.134Z,-0.01
2023-01-26T01:52:12.920Z,0.05
2023-01-26T01:54:49.191Z,0.05
2023-01-26T02:00:04.233Z,0.02
2023-01-26T02:05:04.259Z,-0.01
2023-01-26T02:07:32.879Z,-0.11
2023-01-26T02:10:19.386Z,-0.14
2023-01-26T02:12:53.462Z,-0.13
2023-01-26T02:15:20.324Z,-0.03
2023-01-26T02:17:47.292Z,-0.06
2023-01-26T02:20:31.709Z,-0.01
2023-01-26T02:26:14.528Z,-0.03
2023-01-26T02:28:48.097Z,-0.12
2023-01-26T02:31:15.957Z,-0.13
2023-01-26T02:33:43.738Z,-0.10
2023-01-26T02:36:23.040Z,-0.11
2023-01-26T02:39:00.429Z,-0.12
2023-01-26T02:41:48.936Z,-0.10
2023-01-26T02:44:16.114Z,-0.05
2023-01-26T02:46:43.156Z,-0.07
2023-01-26T02:51:58.243Z,-0.07
2023-01-26T02:54:43.348Z,-0.05
2023-01-26T02:57:10.572Z,-0.12
2023-01-26T02:59:37.614Z,-0.12
2023-01-26T03:02:04.579Z,-0.14
2023-01-26T03:06:58.222Z,-0.17
2023-01-26T03:11:54.466Z,-0.22
2023-01-26T03:14:21.298Z,-0.21
2023-01-26T03:16:48.297Z,-0.12
2023-01-26T03:19:34.746Z,-0.04
2023-01-26T03:22:20.032Z,-0.07
2023-01-26T03:25:05.835Z,-0.05
2023-01-26T03:27:42.914Z,-0.03
2023-01-26T03:30:11.246Z,-0.05
2023-01-26T03:32:38.634Z,0.03
2023-01-26T03:35:06.319Z,0.02
2023-01-26T03:37:37.099Z,0.01
2023-01-26T03:40:23.413Z,-0.06
2023-01-26T03:43:09.091Z,0.00
2023-01-26T03:45:55.977Z,-0.03
2023-01-26T03:48:41.269Z,-0.07
2023-01-26T03:54:11.924Z,-0.13
2023-01-26T03:56:38.864Z,-0.09
2023-01-26T03:59:13.725Z,-0.03
2023-01-26T04:02:02.405Z,-0.06
2023-01-26T04:04:48.444Z,-0.14
2023-01-26T04:07:38.936Z,-0.16
2023-01-26T04:10:10.345Z,-0.14
2023-01-26T04:12:40.536Z,-0.08
2023-01-26T04:18:14.812Z,0.25
2023-01-26T04:21:00.286Z,0.27
2023-01-26T04:25:54.461Z,0.08
2023-01-26T04:28:21.319Z,0.02
2023-01-26T04:30:47.957Z,-0.06
2023-01-26T04:33:18.388Z,-0.13
2023-01-26T04:35:48.428Z,-0.27
2023-01-26T04:38:15.612Z,-0.42
2023-01-26T04:40:42.547Z,-0.39
2023-01-26T04:43:12.550Z,-0.37
2023-01-26T04:45:42.816Z,-0.37
2023-01-26T04:48:10.052Z,-0.34
2023-01-26T04:50:37.562Z,-0.17
2023-01-26T04:53:08.413Z,-0.25
2023-01-26T04:55:38.551Z,-0.23
2023-01-26T04:58:07.432Z,-0.03
2023-01-26T05:00:34.504Z,-0.04
2023-01-26T05:03:04.149Z,-0.11
2023-01-26T05:08:00.713Z,-0.13
2023-01-26T05:12:59.486Z,-0.15
2023-01-26T05:17:57.685Z,-0.40
2023-01-26T05:22:53.721Z,-0.31
2023-01-26T05:25:21.475Z,-0.15
2023-01-26T05:27:48.780Z,-0.10
2023-01-26T05:30:16.649Z,-0.19
2023-01-26T05:32:49.220Z,-0.14
2023-01-26T05:35:16.286Z,-0.15
2023-01-26T05:37:46.668Z,-0.04
2023-01-26T05:40:13.993Z,-0.03
2023-01-26T05:42:43.450Z,-0.14
2023-01-26T05:47:38.002Z,-0.16
2023-01-26T05:50:06.603Z,-0.15
2023-01-26T05:52:37.305Z,-0.13
2023-01-26T05:57:35.518Z,-0.13
2023-01-26T06:00:04.347Z,-0.16
2023-01-26T06:04:57.438Z,-0.11
2023-01-26T06:09:51.145Z,-0.09
2023-01-26T06:12:22.728Z,-0.08
2023-01-26T06:14:49.695Z,-0.20
2023-01-26T06:17:18.374Z,-0.21
2023-01-26T06:19:44.973Z,-0.14
2023-01-26T06:22:13.254Z,-0.10
2023-01-26T06:24:40.208Z,0.02
2023-01-26T06:27:12.053Z,-0.04
2023-01-26T06:29:38.670Z,-0.10
2023-01-26T06:34:40.673Z,-0.15
2023-01-26T06:37:07.801Z,-0.14
2023-01-26T06:39:34.701Z,-0.16
2023-01-26T06:42:04.159Z,-0.18
2023-01-26T06:46:57.485Z,-0.26
2023-01-26T06:54:59.673Z,-0.21
2023-01-26T06:57:38.988Z,-0.17
2023-01-26T07:00:16.566Z,-0.22
2023-01-26T07:02:44.234Z,-0.21
2023-01-26T07:05:12.829Z,-0.15
2023-01-26T07:07:43.108Z,-0.14
2023-01-26T07:10:13.788Z,-0.01
2023-01-26T07:12:43.156Z,-0.16
2023-01-26T07:15:14.215Z,-0.25
2023-01-26T07:17:41.409Z,-0.23
2023-01-26T07:20:09.019Z,-0.18
2023-01-26T07:22:35.710Z,-0.20
2023-01-26T07:25:02.577Z,-0.16
2023-01-26T07:27:31.565Z,-0.22
2023-01-26T07:29:58.596Z,-0.19
2023-01-26T07:34:54.146Z,-0.16
2023-01-26T07:37:20.814Z,-0.18
2023-01-26T07:39:49.114Z,-0.34
2023-01-26T07:42:15.775Z,-0.32
2023-01-26T07:44:42.481Z,-0.30
2023-01-26T07:47:09.319Z,-0.35
2023-01-26T07:49:35.892Z,-0.21
2023-01-26T07:52:04.697Z,-0.18
2023-01-26T07:54:31.656Z,-0.19
2023-01-26T07:56:58.831Z,-0.24
2023-01-26T08:01:53.352Z,-0.19
2023-01-26T08:04:22.698Z,-0.29
2023-01-26T08:06:53.987Z,-0.21
2023-01-26T08:09:20.932Z,-0.29
2023-01-26T08:11:50.635Z,-0.14
2023-01-26T08:14:17.487Z,-0.17
2023-01-26T08:16:45.541Z,-0.10
2023-01-26T08:19:12.194Z,-0.11
2023-01-26T08:21:38.794Z,-0.04
2023-01-26T08:24:06.667Z,-0.02
2023-01-26T08:26:36.012Z,0.03
2023-01-26T08:29:03.217Z,-0.01
2023-01-26T08:31:30.772Z,0.00
2023-01-26T08:33:59.568Z,0.05
2023-01-26T08:38:54.665Z,0.22
2023-01-26T08:41:21.566Z,0.11
2023-01-26T08:43:48.195Z,0.06
2023-01-26T08:46:15.030Z,0.11
2023-01-26T08:48:41.793Z,0.05
2023-01-26T08:51:08.671Z,-0.02
2023-01-26T08:53:37.283Z,-0.07
2023-01-26T08:56:06.177Z,-0.14
2023-01-26T08:58:33.839Z,-0.23
2023-01-26T09:01:07.304Z,-0.16
2023-01-26T09:03:34.561Z,-0.11
2023-01-26T09:06:04.597Z,-0.05
2023-01-26T09:08:31.810Z,-0.01
2023-01-26T09:10:58.946Z,0.04
2023-01-26T09:15:53.187Z,0.00
2023-01-26T09:18:22.513Z,0.05
2023-01-26T09:20:51.235Z,0.03
2023-01-26T09:23:18.422Z,0.01
2023-01-26T09:25:45.362Z,0.16
2023-01-26T09:28:13.022Z,0.10
2023-01-26T09:30:39.801Z,0.18
2023-01-26T09:33:07.366Z,0.16
2023-01-26T09:35:35.038Z,0.06
2023-01-26T09:38:01.743Z,0.01
2023-01-26T09:40:47.127Z,0.02
2023-01-26T09:43:36.656Z,0.15
2023-01-26T09:46:21.713Z,0.09
2023-01-26T09:49:08.499Z,0.07
2023-01-26T09:51:52.969Z,0.14
2023-01-26T09:54:36.590Z,0.01
2023-01-26T09:57:18.789Z,-0.19
2023-01-26T09:59:58.950Z,-0.13
2023-01-26T10:03:01.032Z,0.00
2023-01-26T10:05:52.155Z,0.05
2023-01-26T10:10:59.133Z,-0.06
2023-01-26T10:13:26.444Z,-0.23
2023-01-26T10:16:10.755Z,-0.24
2023-01-26T10:18:50.669Z,-0.23
2023-01-26T10:28:56.171Z,-0.04
2023-01-26T10:31:30.070Z,0.08
2023-01-26T10:34:00.627Z,0.13
2023-01-26T10:36:32.215Z,0.16
2023-01-26T10:39:15.569Z,0.18
2023-01-26T10:41:58.178Z,-0.01
2023-01-26T10:44:40.108Z,-0.24
2023-01-26T10:47:18.676Z,-0.29
2023-01-26T10:49:49.322Z,-0.17
2023-01-26T10:52:22.346Z,-0.32
2023-01-26T10:54:52.069Z,-0.07
2023-01-26T11:00:22.198Z,-0.25
2023-01-26T11:03:16.537Z,-0.31
2023-01-26T11:05:48.305Z,-0.20
2023-01-26T11:08:39.776Z,-0.13
2023-01-26T11:11:10.360Z,-0.14
2023-01-26T11:13:37.835Z,-0.08
2023-01-26T11:16:20.984Z,-0.09
2023-01-26T11:18:56.176Z,0.06
2023-01-26T11:21:29.247Z,0.00
2023-01-26T11:24:11.126Z,0.03
2023-01-26T11:26:52.017Z,0.07
2023-01-26T11:29:46.100Z,0.00
2023-01-26T11:32:52.510Z,0.10
2023-01-26T11:38:24.628Z,0.13
2023-01-26T11:40:59.308Z,0.26
2023-01-26T11:43:42.075Z,0.28
2023-01-26T11:46:21.329Z,0.21
2023-01-26T11:48:54.359Z,0.15
2023-01-26T11:51:31.402Z,0.15
2023-01-26T11:57:04.689Z,0.04
2023-01-26T11:59:46.418Z,-0.06
2023-01-26T12:05:17.996Z,-0.03
2023-01-26T12:07:56.028Z,0.10
2023-01-26T12:10:36.162Z,0.07
2023-01-26T12:13:21.541Z,0.17
2023-01-26T12:15:58.910Z,0.19
2023-01-26T12:19:05.413Z,0.17
2023-01-26T12:21:39.044Z,0.10
2023-01-26T12:24:39.241Z,0.06
2023-01-26T12:27:04.018Z,0.17
2023-01-26T12:29:50.352Z,0.20
2023-01-26T12:32:20.681Z,0.24
2023-01-26T12:34:50.176Z,0.23
2023-01-26T12:37:38.035Z,0.03
2023-01-26T12:40:19.745Z,0.01
2023-01-26T12:43:24.476Z,0.05
2023-01-26T12:46:00.911Z,0.31
2023-01-26T12:48:47.698Z,0.33
2023-01-26T12:51:27.874Z,0.37
2023-01-26T12:54:09.486Z,0.33
2023-01-26T12:56:43.542Z,0.22
2023-01-26T12:59:46.630Z,0.21
2023-01-26T13:02:30.854Z,0.15
2023-01-26T13:05:00.290Z,0.24
2023-01-26T13:07:28.393Z,0.18
2023-01-26T13:10:19.949Z,0.20
2023-01-26T13:12:56.988Z,0.19
2023-01-26T13:15:29.031Z,0.19
2023-01-26T13:17:59.109Z,0.14
2023-01-26T13:20:46.401Z,0.14
2023-01-26T13:23:28.651Z,0.09
2023-01-26T13:26:21.756Z,0.02
2023-01-26T13:28:49.121Z,0.06
2023-01-26T13:31:34.221Z,-0.01
2023-01-26T13:34:07.689Z,0.03
2023-01-26T13:36:37.942Z,0.13
2023-01-26T13:39:31.075Z,0.27
2023-01-26T13:42:02.622Z,0.03
2023-01-26T13:44:53.967Z,0.04
2023-01-26T13:47:34.333Z,0.14
2023-01-26T13:50:01.025Z,0.15
2023-01-26T13:52:28.927Z,0.17
2023-01-26T13:54:58.060Z,0.18
2023-01-26T14:02:31.638Z,0.26
2023-01-26T14:04:58.626Z,0.11
2023-01-26T14:10:07.340Z,0.12
2023-01-26T14:12:36.277Z,0.03
2023-01-26T14:15:07.418Z,0.01
2023-01-26T14:17:47.046Z,0.15
2023-01-26T14:20:24.601Z,0.10
2023-01-26T14:23:10.821Z,0.16
2023-01-26T14:25:39.240Z,0.03
2023-01-26T14:28:06.821Z,-0.01
2023-01-26T14:30:34.718Z,0.11
2023-01-26T14:33:16.294Z,0.16
2023-01-26T14:35:57.575Z,0.13
2023-01-26T14:38:29.528Z,0.08
2023-01-26T14:40:59.266Z,0.10
2023-01-26T14:43:29.736Z,0.07
2023-01-26T14:46:05.730Z,0.08
2023-01-26T14:48:47.099Z,0.15
2023-01-26T14:51:21.603Z,0.21
2023-01-26T14:53:53.171Z,0.31
2023-01-26T14:56:23.811Z,0.34
2023-01-26T14:58:55.406Z,0.24
2023-01-26T15:01:24.450Z,0.29
2023-01-26T15:03:58.978Z,0.30
2023-01-26T15:06:28.472Z,0.29
2023-01-26T15:09:16.814Z,0.36
2023-01-26T15:12:02.484Z,0.40
2023-01-26T15:14:32.414Z,0.40
2023-01-26T15:17:05.322Z,0.31
2023-01-26T15:22:19.751Z,0.21
2023-01-26T15:24:49.181Z,0.20
2023-01-26T15:27:15.916Z,0.19
2023-01-26T15:29:42.628Z,0.14
2023-01-26T15:32:29.145Z,0.12
2023-01-26T15:35:29.358Z,0.11
2023-01-26T15:38:10.560Z,0.22
2023-01-26T15:40:37.935Z,0.24
2023-01-26T15:43:13.852Z,0.17
2023-01-26T15:46:01.379Z,0.16
2023-01-26T15:48:32.027Z,0.16
2023-01-26T15:50:59.516Z,0.09
2023-01-26T15:53:29.702Z,0.13
2023-01-26T15:56:02.291Z,0.23
2023-01-26T15:58:29.407Z,0.30
2023-01-26T16:00:56.427Z,0.30
2023-01-26T16:03:23.189Z,0.25
2023-01-26T16:08:21.489Z,0.27
2023-01-26T16:10:48.857Z,0.22
2023-01-26T16:13:18.526Z,0.19
2023-01-26T16:15:53.445Z,0.16
2023-01-26T16:18:20.664Z,0.15
2023-01-26T16:20:52.798Z,0.17
2023-01-26T16:23:22.397Z,0.19
2023-01-26T16:25:50.840Z,0.30
2023-01-26T16:28:18.150Z,0.36
2023-01-26T16:30:46.419Z,0.33
2023-01-26T16:33:15.442Z,0.25
2023-01-26T16:35:42.549Z,0.20
2023-01-26T16:38:13.217Z,0.26
2023-01-26T16:40:45.264Z,0.18
2023-01-26T16:43:27.841Z,0.16
2023-01-26T16:45:55.586Z,0.25
2023-01-26T16:48:23.225Z,0.25
2023-01-26T16:50:54.125Z,0.26
2023-01-26T16:53:33.071Z,0.20
2023-01-26T16:55:59.806Z,0.30
2023-01-26T16:58:26.705Z,0.36
2023-01-26T17:00:54.638Z,0.28
2023-01-26T17:03:21.498Z,0.26
2023-01-26T17:05:50.448Z,0.31
2023-01-26T17:08:17.140Z,0.31
2023-01-26T17:11:00.606Z,0.30
2023-01-26T17:13:27.955Z,0.31
2023-01-26T17:15:56.736Z,0.27
2023-01-26T17:18:23.579Z,0.30
2023-01-26T17:23:16.518Z,0.28
2023-01-26T17:28:12.029Z,0.34
2023-01-26T17:30:38.769Z,0.31
2023-01-26T17:33:08.199Z,0.31
2023-01-26T17:35:34.732Z,0.25
2023-01-26T17:38:01.290Z,0.10
2023-01-26T17:40:27.952Z,0.23
2023-01-26T17:42:54.579Z,0.05
2023-01-26T17:45:24.045Z,0.11
2023-01-26T17:47:50.771Z,0.05
2023-01-26T17:50:17.388Z,0.08
2023-01-26T17:55:10.849Z,-0.02
2023-01-26T17:57:37.797Z,-0.01
2023-01-26T18:00:06.304Z,0.04
2023-01-26T18:02:33.844Z,0.05
2023-01-26T18:05:00.485Z,0.01
2023-01-26T18:07:31.618Z,-0.11
2023-01-26T18:09:59.220Z,-0.08
2023-01-26T18:12:25.990Z,0.06
2023-01-26T18:14:55.072Z,0.00
2023-01-26T18:17:24.832Z,0.02
2023-01-26T18:22:21.449Z,0.05
2023-01-26T18:29:41.803Z,0.03
2023-01-26T18:32:09.737Z,0.03
2023-01-26T18:34:38.982Z,-0.02
2023-01-26T18:37:05.817Z,0.00
2023-01-26T18:39:33.317Z,-0.03
2023-01-26T18:41:59.891Z,-0.13
2023-01-26T18:44:27.359Z,-0.20
2023-01-26T18:46:54.102Z,-0.15
2023-01-26T18:49:20.702Z,-0.15
2023-01-26T18:51:51.648Z,-0.14
2023-01-26T18:54:20.144Z,-0.12
2023-01-26T18:59:13.801Z,-0.07
2023-01-26T19:01:40.404Z,-0.17
2023-01-26T19:04:07.276Z,-0.15
2023-01-26T19:06:35.232Z,-0.19
2023-01-26T19:09:04.656Z,-0.12
2023-01-26T19:11:34.193Z,-0.13
2023-01-26T19:14:02.353Z,-0.12
2023-01-26T19:16:29.855Z,-0.11
2023-01-26T19:18:57.192Z,-0.13
2023-01-26T19:21:25.350Z,-0.22
2023-01-26T19:26:24.790Z,-0.21
2023-01-26T19:28:53.328Z,-0.14
2023-01-26T19:31:20.726Z,-0.08
2023-01-26T19:36:19.998Z,-0.20
2023-01-26T19:38:46.718Z,-0.25
2023-01-26T19:41:13.924Z,-0.29
2023-01-26T19:43:40.543Z,-0.34
2023-01-26T19:46:09.270Z,-0.36
2023-01-26T19:48:36.142Z,-0.36
2023-01-26T19:51:15.205Z,-0.37
2023-01-26T19:53:44.495Z,-0.37
2023-01-26T19:56:14.067Z,-0.28
2023-01-26T19:58:40.672Z,-0.28
2023-01-26T20:01:10.790Z,-0.37
2023-01-26T20:03:38.197Z,-0.21
2023-01-26T20:06:05.916Z,-0.25
2023-01-26T20:08:33.461Z,-0.18
2023-01-26T20:11:06.795Z,-0.26
2023-01-26T20:13:34.772Z,-0.35
2023-01-26T20:16:03.368Z,-0.42
2023-01-26T20:18:30.396Z,-0.48
2023-01-26T20:20:59.533Z,-0.40
2023-01-26T20:23:27.671Z,-0.41
2023-01-26T20:26:02.300Z,-0.36
2023-01-26T20:28:28.990Z,-0.37
2023-01-26T20:30:59.327Z,-0.49
2023-01-26T20:33:25.970Z,-0.52
2023-01-26T20:35:52.572Z,-0.67
2023-01-26T20:38:19.074Z,-0.66
2023-01-26T20:40:45.611Z,-0.53
2023-01-26T20:43:12.087Z,-0.57
2023-01-26T20:45:41.217Z,-0.51
2023-01-26T20:48:08.239Z,-0.49
2023-01-26T20:50:40.658Z,-0.53
2023-01-26T20:53:08.369Z,-0.65
2023-01-26T20:55:35.125Z,-0.65
2023-01-26T20:58:01.783Z,-0.70
2023-01-26T21:00:28.382Z,-0.53
2023-01-26T21:02:55.140Z,-0.53
2023-01-26T21:05:21.647Z,-0.48
2023-01-26T21:07:48.150Z,-0.50
2023-01-26T21:10:15.188Z,-0.52
2023-01-26T21:12:41.774Z,-0.54
2023-01-26T21:15:08.654Z,-0.53
2023-01-26T21:17:35.220Z,-0.50
2023-01-26T21:20:01.720Z,-0.51
2023-01-26T21:22:28.298Z,-0.47
2023-01-26T21:24:54.864Z,-0.47
2023-01-26T21:27:21.389Z,-0.52
2023-01-26T21:35:01.803Z,-0.66
2023-01-26T21:37:28.595Z,-0.68
2023-01-26T21:39:55.229Z,-0.73
2023-01-26T21:42:21.740Z,-0.78
2023-01-26T21:45:06.858Z,-0.78
2023-01-26T21:47:33.492Z,-0.77
2023-01-26T21:49:59.942Z,-0.73
2023-01-26T21:52:45.202Z,-0.81
2023-01-26T21:55:14.051Z,-0.86
2023-01-26T21:57:58.977Z,-0.89
2023-01-26T22:00:25.630Z,-0.89
2023-01-26T22:05:20.876Z,-0.84
2023-01-26T22:07:47.509Z,-0.76
2023-01-26T22:12:40.775Z,-0.80
2023-01-26T22:15:08.117Z,-0.78
2023-01-26T22:17:34.753Z,-0.85
2023-01-26T22:20:01.490Z,-0.78
2023-01-26T22:22:28.315Z,-0.70
2023-01-26T22:24:55.070Z,-0.69
2023-01-26T22:27:21.579Z,-0.69
2023-01-26T22:29:48.155Z,-0.68
2023-01-26T22:32:14.617Z,-0.67
2023-01-26T22:34:41.082Z,-0.68
2023-01-26T22:37:07.583Z,-0.75
2023-01-26T22:39:34.121Z,-0.74
2023-01-26T22:42:00.579Z,-0.66
2023-01-26T22:44:27.582Z,-0.70
2023-01-26T22:46:54.245Z,-0.62
2023-01-26T22:49:20.723Z,-0.71
2023-01-26T22:54:13.569Z,-0.63
2023-01-26T22:56:40.074Z,-0.63
2023-01-26T22:59:06.541Z,-0.67
2023-01-26T23:01:33.510Z,-0.72
2023-01-26T23:04:01.068Z,-0.69
2023-01-26T23:06:28.317Z,-0.68
2023-01-26T23:08:55.603Z,-0.71
2023-01-26T23:11:28.302Z,-0.61
2023-01-26T23:13:56.406Z,-0.67
2023-01-26T23:16:23.755Z,-0.63
2023-01-26T23:21:21.592Z,-0.85
2023-01-26T23:26:15.057Z,-0.84
2023-01-26T23:28:43.185Z,-0.81
2023-01-26T23:31:11.698Z,-0.76
2023-01-26T23:33:38.962Z,-0.72
2023-01-26T23:36:08.800Z,-0.78
2023-01-26T23:38:35.749Z,-0.76
2023-01-26T23:41:02.824Z,-0.80
2023-01-26T23:43:29.366Z,-0.79
2023-01-26T23:45:56.932Z,-0.74
2023-01-26T23:48:24.757Z,-0.78
2023-01-26T23:53:31.314Z,-0.81
2023-01-26T23:55:59.444Z,-0.79
2023-01-26T23:58:26.084Z,-0.81
